Ana Sayfa
METAR-TAF:

METAR-TAF

Havaalanları :

Lawrence Municipal Airport

Lawrence, Massachusetts, Amerika Birleşik Devletleri

Enlem: 42-42-47N, Boylam: 071-07-33W, yükseklik: 45 m

Güncel hava durumu gözlemi

Rapor saat 19:54 UTC de 26 dakika önce yapıldı.
Rüzgar güneybatıdan 11 kt
Sıcaklık 28°C
Nem 58%
Basınç 1010 hPa
Görüş mesafesi: 16.1 km
3100 ft yükseklikte parçalı bulutlu

METAR: KLWM 051954Z 23011KT 10SM SCT031 28/19 A2983 RMK AO2 SLP099 T02780194

Saat: 16:20 (20:20 UTC)


TAF: eksik

4.000'den fazla havaalanı için hava durumu gözlemleri ve tahminleri (METAR ve TAF raporları).

Kullanılabilir istasyonlar harita üzerinde sarı ve kırmızı noktalarla gösterilir.

İstasyonun adını görmek için fareyi noktanın üzerinde gezdirin.

Sonrasında hava gözlem ve tahminlerini görmek için tıklayın.

Haritayı değiştirmek için: yaklaştırmak için siyah artı işaretli yeşil düğmeye ve uzaklaştırmak için de eksi işaretli düğmeye hızla tıklayın; bitişik haritalar için yeşil okları kullanın.


METAR-TAF: